Time;durP1;ratioP1;P1;durP2;ratioP2;P2;SDS_P1;SDS_P2;PMS_P1;PMS_P2;Temp;Humidity;BMP_temperature;BMP_pressure;BME280_temperature;BME280_humidity;BME280_pressure;Samples;Min_cycle;Max_cycle;Signal;HPM_P1;HPM_P2
2022/10/13 00:00:57;;;;;;;41.53;25.20;;;;;;;18.25;67.71;101860.16;4966197;28;20540;-80
2022/10/13 00:03:24;;;;;;;41.90;26.70;;;;;;;17.91;67.59;101813.41;4965965;28;20058;-82
2022/10/13 00:05:51;;;;;;;44.17;28.05;;;;;;;18.33;67.31;101863.78;4967022;28;20043;-81
2022/10/13 00:08:21;;;;;;;45.67;28.15;;;;;;;17.56;67.31;101752.47;4966615;28;20051;-81
2022/10/13 00:10:50;;;;;;;46.05;28.50;;;;;;;17.68;67.56;101782.59;4966578;28;20050;-81
2022/10/13 00:13:19;;;;;;;46.55;27.02;;;;;;;18.10;67.83;101841.91;4966687;28;20472;-82
2022/10/13 00:15:47;;;;;;;44.60;27.08;;;;;;;18.13;68.08;101856.88;4969459;28;20359;-82
2022/10/13 00:18:14;;;;;;;43.78;27.23;;;;;;;16.94;67.50;101657.59;4951182;28;20058;-82
2022/10/13 00:20:46;;;;;;;45.65;28.20;;;;;;;17.90;67.69;101824.28;4965887;28;20485;-80
2022/10/13 00:23:13;;;;;;;41.00;25.17;;;;;;;17.98;68.65;101863.81;4965784;28;20564;-81
2022/10/13 00:25:42;;;;;;;43.95;25.17;;;;;;;17.97;68.50;101862.13;4966300;28;20141;-82
2022/10/13 00:28:11;;;;;;;36.97;25.27;;;;;;;17.79;68.80;101828.03;4966857;28;20066;-82
2022/10/13 00:30:38;;;;;;;44.03;25.40;;;;;;;17.51;68.32;101778.94;4966344;28;20050;-83
2022/10/13 00:33:06;;;;;;;38.92;25.13;;;;;;;17.76;68.56;101827.47;4966327;28;20051;-81
2022/10/13 00:35:33;;;;;;;44.63;25.63;;;;;;;17.94;68.71;101863.28;4966426;28;20054;-81
2022/10/13 00:38:01;;;;;;;39.55;25.20;;;;;;;17.97;68.38;101862.97;4965361;28;20166;-83
2022/10/13 00:40:27;;;;;;;41.65;26.25;;;;;;;17.89;68.79;101861.06;4965573;28;20141;-83
2022/10/13 00:42:54;;;;;;;42.45;25.23;;;;;;;17.17;69.12;101751.91;4965754;28;20061;-81
2022/10/13 00:45:28;;;;;;;46.65;23.70;;;;;;;17.75;69.42;101841.94;4967079;28;20039;-80
2022/10/13 00:47:59;;;;;;;39.92;22.75;;;;;;;17.80;68.96;101853.06;4965525;28;20085;-81
2022/10/13 00:50:32;;;;;;;35.10;21.13;;;;;;;16.64;68.97;101659.59;4965494;28;20086;-81
2022/10/13 00:53:00;;;;;;;37.30;22.73;;;;;;;17.83;69.26;101855.44;4965577;28;20061;-81
2022/10/13 00:55:30;;;;;;;32.95;21.75;;;;;;;17.81;68.71;101857.44;4965322;28;20055;-82
2022/10/13 00:58:01;;;;;;;35.15;22.17;;;;;;;17.80;68.86;101867.34;4966013;28;20597;-81
2022/10/13 01:00:32;;;;;;;30.67;21.67;;;;;;;17.79;69.05;101862.09;4965538;28;20134;-83
2022/10/13 01:03:00;;;;;;;32.53;20.77;;;;;;;17.71;68.60;101852.94;4963514;28;20134;-82
2022/10/13 01:05:29;;;;;;;32.17;20.27;;;;;;;17.68;68.73;101842.53;4969104;28;20089;-82
2022/10/13 01:07:56;;;;;;;30.98;20.00;;;;;;;17.58;68.94;101820.28;4969030;28;20552;-81
2022/10/13 01:10:58;;;;;;;31.85;20.75;;;;;;;17.77;68.79;101850.66;4969230;28;20054;-82
2022/10/13 01:14:02;;;;;;;33.17;20.23;;;;;;;17.62;68.78;101847.66;4969037;28;20054;-82
2022/10/13 01:16:50;;;;;;;30.77;20.55;;;;;;;17.36;68.92;101799.25;4985061;28;20142;-82
2022/10/13 01:19:35;;;;;;;37.95;19.35;;;;;;;17.69;68.67;101860.34;4968813;28;20511;-82
2022/10/13 01:22:17;;;;;;;27.55;20.75;;;;;;;17.63;68.96;101855.56;4982715;28;20477;-83
2022/10/13 01:24:55;;;;;;;32.25;20.48;;;;;;;17.57;69.20;101845.41;4982806;28;20568;-82
2022/10/13 01:27:34;;;;;;;32.95;20.95;;;;;;;16.63;69.10;101684.75;4966202;28;20475;-82
2022/10/13 01:30:14;;;;;;;30.98;20.00;;;;;;;17.59;69.41;101832.69;4967854;28;20093;-84
2022/10/13 01:33:06;;;;;;;32.85;20.23;;;;;;;17.41;69.50;101794.28;4967937;28;20178;-81
2022/10/13 01:35:52;;;;;;;28.45;20.85;;;;;;;17.53;69.34;101819.91;4968873;28;20047;-81
2022/10/13 01:38:24;;;;;;;31.80;19.60;;;;;;;17.32;69.84;101792.50;4967891;28;20051;-82
2022/10/13 01:41:04;;;;;;;35.10;20.48;;;;;;;17.58;69.48;101836.38;4967699;28;20145;-80
2022/10/13 01:43:37;;;;;;;37.60;21.25;;;;;;;17.56;69.45;101838.38;4972332;28;20057;-82
2022/10/13 01:46:12;;;;;;;31.63;20.08;;;;;;;16.74;69.86;101703.28;4970759;28;20511;-83
2022/10/13 01:48:42;;;;;;;34.92;21.38;;;;;;;17.47;69.92;101826.69;4967685;28;20121;-81
2022/10/13 01:51:13;;;;;;;32.30;20.10;;;;;;;17.50;70.47;101831.78;4966984;28;20047;-82
2022/10/13 01:53:41;;;;;;;28.90;20.70;;;;;;;17.19;70.41;101782.97;4983177;28;20057;-83
2022/10/13 01:56:08;;;;;;;32.60;19.75;;;;;;;17.38;70.00;101813.34;4966716;28;20137;-82
2022/10/13 01:58:36;;;;;;;28.98;20.38;;;;;;;17.21;70.62;101797.09;4982474;28;20086;-83
2022/10/13 02:01:33;;;;;;;31.25;19.45;;;;;;;17.40;70.29;101833.66;4967849;28;20321;-80
2022/10/13 02:04:08;;;;;;;28.13;19.98;;;;;;;17.34;70.18;101818.19;4966618;28;20058;-80
2022/10/13 02:06:45;;;;;;;32.00;19.50;;;;;;;17.44;69.98;101826.16;4967702;28;20051;-81
2022/10/13 02:09:34;;;;;;;31.25;20.35;;;;;;;17.39;69.96;101817.72;4968316;28;20227;-83
2022/10/13 02:12:07;;;;;;;31.40;20.40;;;;;;;17.34;70.16;101811.97;4968289;28;20078;-82
2022/10/13 02:14:37;;;;;;;33.28;20.25;;;;;;;17.32;69.68;101812.13;4967588;28;20141;-81
2022/10/13 02:17:04;;;;;;;30.52;20.25;;;;;;;17.00;69.63;101761.63;4967753;28;20055;-82
2022/10/13 02:19:37;;;;;;;31.70;20.33;;;;;;;17.39;70.27;101831.16;4969671;28;20063;-81
2022/10/13 02:22:06;;;;;;;29.05;20.08;;;;;;;17.03;70.08;101758.63;4968051;28;20061;-80
2022/10/13 02:24:33;;;;;;;32.75;19.25;;;;;;;16.98;69.81;101747.50;4969293;28;20061;-79
2022/10/13 02:27:04;;;;;;;32.80;22.13;;;;;;;17.39;70.12;101820.41;4969426;28;20065;-81
2022/10/13 02:29:31;;;;;;;31.85;22.23;;;;;;;17.35;70.08;101809.13;4968819;28;20062;-80
2022/10/13 02:31:58;;;;;;;34.65;21.58;;;;;;;16.90;70.25;101737.53;4967374;28;20523;-80
2022/10/13 02:34:25;;;;;;;40.28;22.98;;;;;;;17.30;70.07;101798.84;4967933;28;20082;-81
2022/10/13 02:36:51;;;;;;;35.03;23.20;;;;;;;16.44;70.04;101648.16;4967427;28;20078;-83
2022/10/13 02:39:18;;;;;;;36.17;23.73;;;;;;;17.32;69.74;101793.31;4968563;28;20102;-82
2022/10/13 02:41:45;;;;;;;35.13;23.88;;;;;;;17.09;69.80;101752.69;4967637;28;20055;-83
2022/10/13 02:44:11;;;;;;;41.90;24.90;;;;;;;17.24;69.89;101779.84;4967191;28;20141;-81
2022/10/13 02:46:38;;;;;;;41.28;26.27;;;;;;;17.23;70.04;101775.44;4968527;28;20050;-82
2022/10/13 02:49:04;;;;;;;37.28;24.48;;;;;;;17.40;70.03;101803.28;4967304;28;20051;-81
2022/10/13 02:51:31;;;;;;;40.67;23.77;;;;;;;17.47;69.20;101807.91;4966940;28;20058;-81
2022/10/13 02:54:05;;;;;;;39.20;25.05;;;;;;;17.11;69.31;101742.59;4967420;28;20082;-81
2022/10/13 02:56:31;;;;;;;35.38;23.50;;;;;;;17.30;69.44;101766.63;4967216;28;20101;-83
2022/10/13 02:58:58;;;;;;;42.38;25.20;;;;;;;16.93;69.29;101709.56;4967430;28;20248;-82
2022/10/13 03:01:25;;;;;;;44.30;25.83;;;;;;;17.37;69.86;101782.97;4967275;28;20051;-82
2022/10/13 03:03:51;;;;;;;48.63;27.73;;;;;;;17.05;69.61;101732.50;4967221;28;20054;-82
2022/10/13 03:06:18;;;;;;;41.13;25.92;;;;;;;17.38;70.29;101786.50;4967109;28;20071;-83
2022/10/13 03:08:45;;;;;;;41.72;25.08;;;;;;;17.25;70.14;101778.81;4967581;28;20186;-82
2022/10/13 03:11:11;;;;;;;40.50;25.23;;;;;;;16.73;70.14;101704.28;4967316;28;20061;-82
2022/10/13 03:13:38;;;;;;;36.35;23.38;;;;;;;17.18;69.68;101767.84;4967465;28;20077;-82
2022/10/13 03:16:06;;;;;;;39.40;23.13;;;;;;;17.24;69.42;101767.25;4967032;28;20137;-82
2022/10/13 03:18:33;;;;;;;39.30;22.98;;;;;;;17.21;69.63;101762.19;4967260;28;20082;-82
2022/10/13 03:21:02;;;;;;;36.75;23.33;;;;;;;17.34;69.86;101793.19;4966817;28;20145;-82
2022/10/13 03:23:29;;;;;;;38.70;24.45;;;;;;;17.29;70.28;101805.22;4968178;28;20417;-82
2022/10/13 03:25:55;;;;;;;34.05;25.30;;;;;;;17.18;70.41;101785.78;4966781;28;20489;-82
2022/10/13 03:28:22;;;;;;;43.25;25.95;;;;;;;17.23;70.11;101792.41;4965550;28;20054;-81
2022/10/13 03:30:49;;;;;;;42.22;25.88;;;;;;;17.20;70.06;101790.00;4966746;28;20501;-81
2022/10/13 03:33:16;;;;;;;42.80;28.95;;;;;;;17.19;70.45;101788.34;4966567;28;20046;-82
2022/10/13 03:35:42;;;;;;;43.17;27.02;;;;;;;17.19;70.29;101788.34;4966142;28;20210;-80
2022/10/13 03:38:10;;;;;;;44.15;28.73;;;;;;;17.13;69.83;101778.19;4967591;28;20053;-81
2022/10/13 03:40:36;;;;;;;44.90;27.55;;;;;;;17.18;69.31;101783.94;4966656;28;20050;-80
2022/10/13 03:43:03;;;;;;;49.10;27.73;;;;;;;17.22;69.37;101793.38;4965830;28;20560;-81
2022/10/13 03:45:30;;;;;;;38.38;26.20;;;;;;;17.11;69.44;101771.28;4966290;28;20416;-81
2022/10/13 03:47:57;;;;;;;38.78;26.83;;;;;;;17.20;68.92;101795.38;4967239;28;20109;-81
2022/10/13 03:50:24;;;;;;;42.90;25.80;;;;;;;17.18;69.14;101792.00;4966139;28;20515;-81
2022/10/13 03:52:51;;;;;;;43.25;27.92;;;;;;;16.96;69.18;101753.00;4965842;28;20058;-81
2022/10/13 03:55:17;;;;;;;37.45;25.20;;;;;;;17.10;69.48;101786.53;4966228;28;20058;-80
2022/10/13 03:57:44;;;;;;;40.13;25.80;;;;;;;17.16;69.34;101794.00;4965901;28;20078;-81
2022/10/13 04:00:11;;;;;;;37.97;24.88;;;;;;;17.12;69.51;101800.66;4965503;28;20050;-82
2022/10/13 04:02:38;;;;;;;48.33;27.02;;;;;;;16.88;69.78;101758.28;4965509;28;20573;-80
2022/10/13 04:05:05;;;;;;;47.22;26.67;;;;;;;17.05;69.61;101791.53;4966463;28;20055;-80
2022/10/13 04:07:32;;;;;;;39.28;26.05;;;;;;;16.93;69.83;101790.88;4965822;28;20141;-82
2022/10/13 04:09:58;;;;;;;44.40;25.60;;;;;;;16.52;69.96;101722.47;4966030;28;20051;-81
2022/10/13 04:12:25;;;;;;;49.42;26.65;;;;;;;16.91;70.26;101800.91;4965982;28;20141;-81
2022/10/13 04:14:52;;;;;;;38.45;26.23;;;;;;;16.81;70.13;101778.66;4965730;28;20051;-82
2022/10/13 04:17:19;;;;;;;37.05;25.70;;;;;;;16.90;69.94;101804.59;4965602;28;20070;-81
2022/10/13 04:19:46;;;;;;;41.22;25.55;;;;;;;16.44;70.12;101713.31;4966022;28;20489;-82
2022/10/13 04:22:12;;;;;;;42.08;25.77;;;;;;;16.81;70.18;101782.19;4965989;28;20051;-81
2022/10/13 04:24:39;;;;;;;38.00;25.25;;;;;;;16.84;69.99;101786.41;4965852;28;20047;-81
2022/10/13 04:27:06;;;;;;;36.08;26.10;;;;;;;16.94;70.00;101797.91;4966978;28;20054;-81
2022/10/13 04:29:32;;;;;;;41.83;26.63;;;;;;;16.77;69.58;101770.03;4965595;28;20117;-82
2022/10/13 04:31:59;;;;;;;40.10;26.55;;;;;;;16.90;70.00;101798.38;4966124;28;20144;-81
2022/10/13 04:34:26;;;;;;;46.65;25.25;;;;;;;16.52;69.97;101733.19;4966899;28;20137;-81
2022/10/13 04:36:52;;;;;;;42.83;26.27;;;;;;;16.86;69.92;101790.63;4966006;28;20050;-81
2022/10/13 04:39:19;;;;;;;39.80;26.25;;;;;;;16.81;70.20;101790.22;4984100;28;20051;-81
2022/10/13 04:41:46;;;;;;;45.00;26.02;;;;;;;16.79;70.18;101792.19;4970379;28;20058;-82
2022/10/13 04:44:12;;;;;;;38.70;26.52;;;;;;;16.82;69.66;101783.00;4969811;28;20057;-79
2022/10/13 04:46:39;;;;;;;41.13;28.33;;;;;;;16.66;69.77;101759.50;4969899;28;20055;-82
2022/10/13 04:49:06;;;;;;;38.10;27.17;;;;;;;16.71;69.79;101751.03;4972691;28;20126;-80
2022/10/13 04:51:32;;;;;;;41.42;28.25;;;;;;;16.54;68.98;101713.28;4970244;28;20055;-82
2022/10/13 04:54:01;;;;;;;41.72;27.77;;;;;;;16.68;70.03;101752.16;4970286;28;20291;-80
2022/10/13 04:56:27;;;;;;;42.92;28.17;;;;;;;16.67;70.28;101761.19;4970675;28;20307;-83
2022/10/13 04:58:54;;;;;;;43.00;28.02;;;;;;;16.76;70.30;101787.13;4970309;28;20449;-81
2022/10/13 05:01:23;;;;;;;49.55;29.08;;;;;;;16.71;70.32;101789.41;4968881;28;20062;-81
2022/10/13 05:03:52;;;;;;;70.47;46.60;;;;;;;16.35;70.38;101734.81;4969192;28;20104;-81
2022/10/13 05:06:22;;;;;;;51.67;28.85;;;;;;;16.40;70.78;101749.44;4969213;28;20480;-81
2022/10/13 05:08:49;;;;;;;39.55;27.33;;;;;;;16.59;70.83;101796.78;4969458;28;20179;-82
2022/10/13 05:11:18;;;;;;;45.90;27.90;;;;;;;16.52;70.81;101784.09;4969357;28;20053;-81
2022/10/13 05:13:46;;;;;;;42.40;27.00;;;;;;;16.57;70.57;101798.75;4970135;28;20043;-81
2022/10/13 05:16:16;;;;;;;42.03;28.25;;;;;;;16.57;70.60;101803.28;4968097;28;20054;-82
2022/10/13 05:18:43;;;;;;;43.25;28.00;;;;;;;15.51;70.95;101629.28;4967496;28;20047;-82
2022/10/13 05:21:19;;;;;;;47.60;28.60;;;;;;;15.84;70.45;101669.13;4984024;28;20054;-82
2022/10/13 05:23:46;;;;;;;45.35;29.20;;;;;;;16.20;69.65;101713.00;4968500;28;20054;-81
2022/10/13 05:26:16;;;;;;;45.53;28.35;;;;;;;16.70;69.93;101798.44;4968498;28;20602;-83
2022/10/13 05:28:43;;;;;;;45.70;28.92;;;;;;;16.69;70.18;101795.91;4984895;28;20563;-82
2022/10/13 05:31:20;;;;;;;48.15;30.15;;;;;;;16.69;70.51;101798.59;4968530;28;20121;-81
2022/10/13 05:33:47;;;;;;;47.75;29.90;;;;;;;16.07;70.61;101718.69;4984267;28;20089;-81
2022/10/13 05:36:17;;;;;;;52.83;30.25;;;;;;;16.45;70.19;101757.88;4968856;28;20094;-80
2022/10/13 05:38:44;;;;;;;50.20;32.17;;;;;;;16.50;70.26;101764.66;4969409;28;20394;-82
2022/10/13 05:41:13;;;;;;;56.30;32.47;;;;;;;15.85;70.54;101652.91;4985302;28;20057;-80
2022/10/13 05:43:41;;;;;;;52.67;32.95;;;;;;;16.67;70.56;101796.03;4986034;28;20053;-83
2022/10/13 05:46:08;;;;;;;55.33;34.33;;;;;;;16.72;70.34;101799.13;4984555;28;20058;-81
2022/10/13 05:48:35;;;;;;;54.58;34.60;;;;;;;16.73;70.04;101790.09;4966978;28;20166;-79
2022/10/13 05:51:08;;;;;;;62.53;35.95;;;;;;;16.16;70.30;101703.56;4966965;28;20416;-79
2022/10/13 05:53:43;;;;;;;60.47;35.83;;;;;;;16.78;70.15;101798.56;4984157;28;20059;-78
2022/10/13 05:56:22;;;;;;;62.17;36.15;;;;;;;16.85;69.98;101790.78;4968763;28;20441;-78
2022/10/13 05:58:53;;;;;;;59.35;35.17;;;;;;;16.75;70.32;101788.13;4968216;28;20047;-81
2022/10/13 06:01:24;;;;;;;62.90;36.55;;;;;;;16.50;69.70;101729.81;4968383;28;20081;-80
2022/10/13 06:03:54;;;;;;;60.80;35.65;;;;;;;16.75;69.65;101763.97;4970584;28;20054;-81
2022/10/13 06:06:22;;;;;;;57.25;34.67;;;;;;;16.71;70.12;101757.22;4962713;28;20052;-80
2022/10/13 06:08:56;;;;;;;59.78;35.58;;;;;;;16.92;69.97;101788.34;4964684;28;20531;-80
2022/10/13 06:11:22;;;;;;;66.60;36.75;;;;;;;16.44;70.39;101702.59;4964588;28;20051;-81
2022/10/13 06:13:49;;;;;;;66.63;37.42;;;;;;;16.94;70.31;101786.34;4948865;29;20079;-79
2022/10/13 06:16:17;;;;;;;63.03;37.30;;;;;;;17.01;70.06;101779.41;4948863;29;20296;-81
2022/10/13 06:18:43;;;;;;;62.05;38.45;;;;;;;16.86;70.51;101749.56;4948921;28;20501;-80
2022/10/13 06:21:13;;;;;;;65.28;37.03;;;;;;;16.00;70.38;101608.59;4949568;28;20055;-81
2022/10/13 06:23:40;;;;;;;60.42;36.38;;;;;;;16.75;70.32;101726.44;4984188;28;20129;-80
2022/10/13 06:26:09;;;;;;;59.83;35.63;;;;;;;16.96;70.01;101749.50;4967757;28;20055;-81
2022/10/13 06:28:36;;;;;;;63.30;36.65;;;;;;;16.53;70.52;101689.28;4968796;28;20062;-82
2022/10/13 06:31:05;;;;;;;57.35;34.95;;;;;;;17.07;70.77;101768.06;4967724;28;20735;-81
2022/10/13 06:33:33;;;;;;;64.80;39.78;;;;;;;16.78;70.45;101714.56;4983672;28;20105;-81
2022/10/13 06:36:02;;;;;;;62.17;37.88;;;;;;;17.02;70.56;101743.53;4967988;28;20199;-82
2022/10/13 06:38:29;;;;;;;69.72;39.42;;;;;;;17.17;70.61;101768.84;4967902;28;20061;-81
2022/10/13 06:41:06;;;;;;;65.40;38.78;;;;;;;17.11;70.30;101731.88;4968634;28;20246;-81
2022/10/13 06:43:33;;;;;;;62.13;38.28;;;;;;;17.05;69.92;101711.03;4965260;28;20054;-81
2022/10/13 06:46:06;;;;;;;68.07;40.28;;;;;;;17.34;69.92;101752.94;4969315;28;20058;-81
2022/10/13 06:48:34;;;;;;;69.93;39.78;;;;;;;17.36;69.46;101759.81;4967767;28;20145;-80
2022/10/13 06:51:06;;;;;;;63.75;38.75;;;;;;;17.45;69.03;101760.72;4968825;28;20050;-81
2022/10/13 06:53:33;;;;;;;69.55;38.97;;;;;;;17.43;68.70;101738.59;4967646;28;20047;-81
2022/10/13 06:56:01;;;;;;;66.97;38.47;;;;;;;17.55;69.16;101769.56;4967667;28;20061;-81
2022/10/13 06:58:28;;;;;;;65.80;37.97;;;;;;;17.66;68.26;101772.00;4966952;28;20078;-81
2022/10/13 07:00:55;;;;;;;65.05;38.15;;;;;;;17.37;67.25;101694.41;4966597;28;20133;-78
2022/10/13 07:03:23;;;;;;;56.10;36.97;;;;;;;17.65;67.67;101713.94;4965404;28;20505;-77
2022/10/13 07:05:50;;;;;;;65.03;37.22;;;;;;;18.12;66.57;101772.72;4968153;28;20141;-78
2022/10/13 07:08:18;;;;;;;57.63;38.90;;;;;;;18.11;66.71;101780.97;4966207;28;20560;-77
2022/10/13 07:10:44;;;;;;;58.38;34.60;;;;;;;18.12;66.35;101778.09;4966616;28;20404;-77
2022/10/13 07:13:11;;;;;;;62.50;37.88;;;;;;;18.16;66.04;101781.34;4965387;28;20065;-76
2022/10/13 07:15:39;;;;;;;60.28;34.42;;;;;;;17.55;65.90;101697.09;4965066;28;20062;-78
2022/10/13 07:18:06;;;;;;;53.78;33.00;;;;;;;17.87;66.27;101749.41;4965111;28;20054;-77
2022/10/13 07:20:33;;;;;;;64.57;35.40;;;;;;;18.10;65.53;101772.03;4950078;28;20493;-77
2022/10/13 07:23:01;;;;;;;53.38;32.55;;;;;;;18.12;65.77;101775.41;4966294;28;20145;-78
2022/10/13 07:25:27;;;;;;;52.67;32.67;;;;;;;17.66;65.43;101691.44;4966688;28;20146;-76
2022/10/13 07:27:54;;;;;;;49.60;31.85;;;;;;;18.10;65.78;101777.41;4966629;28;20047;-78
2022/10/13 07:30:21;;;;;;;50.78;30.98;;;;;;;17.98;66.13;101769.78;4966585;28;20082;-78
2022/10/13 07:32:48;;;;;;;53.15;31.85;;;;;;;18.10;65.96;101787.34;4964084;28;20171;-77
2022/10/13 07:35:15;;;;;;;53.05;34.10;;;;;;;18.05;66.20;101787.81;4954841;28;20047;-76
2022/10/13 07:37:41;;;;;;;59.72;34.13;;;;;;;17.73;66.29;101730.09;4958267;28;20074;-78
2022/10/13 07:40:09;;;;;;;52.70;31.65;;;;;;;17.96;66.35;101753.81;4978719;28;20043;-77
2022/10/13 07:42:35;;;;;;;57.30;33.35;;;;;;;18.27;65.53;101786.44;4957374;28;20149;-77
2022/10/13 07:45:02;;;;;;;65.22;38.83;;;;;;;18.02;65.55;101763.09;4965730;28;20047;-77
2022/10/13 07:47:29;;;;;;;66.88;38.78;;;;;;;18.14;66.00;101794.09;4969438;28;20053;-78
2022/10/13 07:49:55;;;;;;;54.42;36.28;;;;;;;18.05;66.87;101763.63;4978554;28;20061;-79
2022/10/13 07:52:22;;;;;;;68.20;37.38;;;;;;;18.21;66.04;101791.63;4976068;28;20051;-79
2022/10/13 07:54:50;;;;;;;71.70;42.55;;;;;;;18.26;65.96;101794.69;4975964;28;20062;-77
2022/10/13 07:57:17;;;;;;;72.25;37.58;;;;;;;18.34;65.87;101794.72;4981216;28;20168;-78
2022/10/13 07:59:44;;;;;;;70.20;39.15;;;;;;;18.35;65.90;101782.97;4954435;28;20421;-79
2022/10/13 08:02:10;;;;;;;70.32;40.20;;;;;;;18.44;66.02;101790.06;4963583;28;20137;-78
2022/10/13 08:04:37;;;;;;;69.35;43.38;;;;;;;18.41;65.20;101787.72;4961037;28;20168;-77
2022/10/13 08:07:05;;;;;;;58.75;35.22;;;;;;;18.45;65.08;101783.72;4980163;28;20039;-79
2022/10/13 08:09:33;;;;;;;73.43;43.13;;;;;;;18.49;65.17;101793.13;4957630;28;20053;-79
2022/10/13 08:11:59;;;;;;;78.10;43.17;;;;;;;18.48;64.79;101791.44;4956066;28;20054;-79
2022/10/13 08:14:28;;;;;;;70.47;41.20;;;;;;;18.48;64.74;101788.75;4956110;28;20493;-77
2022/10/13 08:16:56;;;;;;;67.97;39.63;;;;;;;18.46;64.84;101790.75;4974549;28;20043;-77
2022/10/13 08:19:25;;;;;;;65.13;38.85;;;;;;;18.51;65.05;101791.13;4962528;28;20096;-78
2022/10/13 08:21:52;;;;;;;61.72;37.95;;;;;;;18.44;65.63;101795.44;4961377;28;20120;-78
2022/10/13 08:24:26;;;;;;;56.85;31.35;;;;;;;18.47;66.12;101783.53;4975223;28;20113;-78
2022/10/13 08:26:54;;;;;;;63.55;38.33;;;;;;;18.58;65.58;101791.34;4977908;28;20127;-78
2022/10/13 08:29:22;;;;;;;70.45;39.67;;;;;;;18.68;65.06;101791.22;4961661;28;20107;-78
2022/10/13 08:31:51;;;;;;;69.68;39.88;;;;;;;18.75;64.88;101795.78;4979068;28;20047;-80
2022/10/13 08:34:20;;;;;;;70.85;40.22;;;;;;;18.28;63.71;101709.34;4959397;28;20433;-78
2022/10/13 08:36:46;;;;;;;73.82;40.67;;;;;;;18.92;63.71;101803.97;4975640;28;20456;-77
2022/10/13 08:39:13;;;;;;;71.47;44.15;;;;;;;18.87;63.95;101796.38;4976763;28;20154;-78
2022/10/13 08:41:42;;;;;;;73.05;42.58;;;;;;;18.69;64.17;101779.44;4975496;28;20050;-78
2022/10/13 08:44:21;;;;;;;64.40;39.20;;;;;;;18.93;64.33;101800.25;4963159;28;20409;-77
2022/10/13 08:47:22;;;;;;;69.35;39.83;;;;;;;19.01;64.14;101797.63;4949372;28;20043;-77
2022/10/13 08:49:49;;;;;;;;;;;;;;;19.11;63.51;101802.84;4961144;28;20047;-79
2022/10/13 08:52:21;;;;;;;58.45;35.85;;;;;;;19.27;62.86;101802.88;4965168;28;19922;-77
2022/10/13 08:54:49;;;;;;;73.05;40.88;;;;;;;19.34;62.76;101811.16;4965925;28;20547;-77
2022/10/13 08:57:17;;;;;;;51.90;35.20;;;;;;;19.43;62.43;101808.31;4964997;28;20054;-79
2022/10/13 08:59:45;;;;;;;59.38;36.75;;;;;;;19.23;62.93;101779.19;4965647;28;20051;-79
2022/10/13 09:02:25;;;;;;;58.72;38.70;;;;;;;19.38;63.01;101791.81;4964787;28;20374;-77
2022/10/13 09:04:53;;;;;;;52.55;30.70;;;;;;;19.62;63.08;101811.72;4965091;28;20611;-77
2022/10/13 09:07:27;;;;;;;58.20;34.70;;;;;;;19.71;62.67;101808.06;4965152;28;20491;-77
2022/10/13 09:09:55;;;;;;;65.25;36.83;;;;;;;19.83;62.15;101806.72;4966556;28;20046;-79
2022/10/13 09:12:23;;;;;;;60.97;37.30;;;;;;;19.79;61.86;101791.06;4965150;28;20051;-78
2022/10/13 09:15:08;;;;;;;60.08;36.05;;;;;;;18.87;62.41;101624.19;4965189;28;20074;-78
2022/10/13 09:17:37;;;;;;;61.55;35.05;;;;;;;20.08;62.17;101800.47;4964842;28;20653;-77
2022/10/13 09:20:24;;;;;;;49.70;29.65;;;;;;;20.23;61.98;101794.22;4965110;28;20097;-78
2022/10/13 09:23:13;;;;;;;56.08;33.10;;;;;;;20.36;61.49;101795.53;4965492;28;20049;-77
2022/10/13 09:25:49;;;;;;;48.03;31.05;;;;;;;19.98;60.84;101725.19;4967315;28;20497;-76
2022/10/13 09:28:23;;;;;;;42.47;26.63;;;;;;;20.60;60.98;101800.91;4968239;28;20074;-78
2022/10/13 09:31:03;;;;;;;50.45;30.45;;;;;;;20.63;60.02;101779.00;4968385;28;20519;-78
2022/10/13 09:33:35;;;;;;;41.03;27.27;;;;;;;20.76;60.37;101793.78;4968112;28;20109;-78
2022/10/13 09:36:14;;;;;;;50.88;30.40;;;;;;;20.16;60.20;101679.97;4955161;28;20141;-80
2022/10/13 09:39:07;;;;;;;47.65;24.67;;;;;;;20.91;58.57;101759.63;4968973;28;20134;-76
2022/10/13 09:41:35;;;;;;;37.67;24.65;;;;;;;21.20;57.98;101782.44;4968167;28;20139;-77
2022/10/13 09:44:15;;;;;;;45.58;25.60;;;;;;;20.93;57.85;101730.63;4968078;28;20459;-78
2022/10/13 09:46:55;;;;;;;42.63;28.10;;;;;;;21.27;57.53;101780.69;4969307;28;20617;-77
2022/10/13 09:49:38;;;;;;;46.45;25.75;;;;;;;21.28;58.21;101772.41;4968505;28;20496;-77
2022/10/13 09:52:20;;;;;;;47.15;28.60;;;;;;;21.21;57.28;101749.81;4968060;28;20393;-80
2022/10/13 09:54:52;;;;;;;46.47;27.23;;;;;;;21.51;56.71;101769.75;4968675;28;20074;-77
2022/10/13 09:57:27;;;;;;;45.13;27.25;;;;;;;21.59;56.16;101773.41;4969509;28;20058;-76
2022/10/13 10:00:06;;;;;;;48.10;25.17;;;;;;;21.73;55.66;101767.22;4968014;28;20051;-77
2022/10/13 10:02:39;;;;;;;45.75;26.15;;;;;;;21.60;55.31;101735.38;4965698;28;20085;-77
2022/10/13 10:05:27;;;;;;;49.55;28.20;;;;;;;21.83;55.38;101758.88;4964953;28;20161;-78
2022/10/13 10:08:05;;;;;;;41.28;26.35;;;;;;;21.89;55.37;101758.13;4969485;28;20051;-76
2022/10/13 10:10:34;;;;;;;36.38;21.27;;;;;;;21.97;55.81;101758.91;4967975;28;20062;-78
2022/10/13 10:13:02;;;;;;;39.08;24.45;;;;;;;22.13;55.50;101759.75;4966948;28;20042;-76
2022/10/13 10:15:58;;;;;;;34.03;20.10;;;;;;;22.22;54.08;101755.13;4983994;28;20145;-77
2022/10/13 10:18:47;;;;;;;35.53;22.60;;;;;;;22.30;52.99;101750.47;4974157;28;20058;-76
2022/10/13 10:21:42;;;;;;;34.53;23.52;;;;;;;22.50;52.78;101741.78;4967203;28;20061;-76
2022/10/13 10:24:34;;;;;;;42.33;23.33;;;;;;;22.67;52.99;101750.53;4962402;28;20271;-78
2022/10/13 10:27:18;;;;;;;40.25;23.02;;;;;;;22.73;51.71;101749.81;4966712;28;20058;-77
2022/10/13 10:29:48;;;;;;;36.80;19.90;;;;;;;22.42;50.90;101676.97;4964780;28;20497;-78
2022/10/13 10:32:37;;;;;;;31.45;19.35;;;;;;;22.81;51.12;101753.22;4967019;28;20545;-78
2022/10/13 10:35:12;;;;;;;36.80;19.60;;;;;;;22.81;51.25;101723.44;4983086;28;20134;-77
2022/10/13 10:38:02;;;;;;;33.83;21.73;;;;;;;22.62;50.54;101683.44;4967153;28;20271;-78
2022/10/13 10:40:48;;;;;;;29.65;17.17;;;;;;;22.67;51.73;101685.59;4959903;28;20055;-78
2022/10/13 10:43:36;;;;;;;35.47;20.65;;;;;;;22.78;49.88;101679.69;4967437;28;20101;-78
2022/10/13 10:46:11;;;;;;;25.63;14.98;;;;;;;23.16;51.19;101729.09;4967954;28;20166;-77
2022/10/13 10:48:39;;;;;;;34.45;20.98;;;;;;;23.31;50.10;101729.03;4967388;28;20503;-78
2022/10/13 10:51:08;;;;;;;27.02;15.30;;;;;;;23.46;51.25;101724.38;4967236;28;20082;-77
2022/10/13 10:53:38;;;;;;;37.33;19.50;;;;;;;23.44;49.33;101720.19;4969188;28;20065;-76
2022/10/13 10:56:26;;;;;;;34.72;19.17;;;;;;;23.43;48.92;101710.38;4969663;28;20078;-77
2022/10/13 10:59:05;;;;;;;32.70;19.45;;;;;;;23.49;48.26;101715.00;4969469;28;20066;-77
2022/10/13 11:01:38;;;;;;;25.48;15.27;;;;;;;23.03;49.64;101636.88;4967087;28;20054;-78
2022/10/13 11:04:32;;;;;;;23.98;15.38;;;;;;;23.41;46.62;101697.03;4958609;28;20137;-79
2022/10/13 11:06:58;;;;;;;29.40;18.10;;;;;;;23.39;48.18;101668.44;4970421;28;20082;-78
2022/10/13 11:09:40;;;;;;;26.15;15.48;;;;;;;23.10;48.94;101643.19;4970828;28;20546;-79
2022/10/13 11:12:20;;;;;;;29.35;14.95;;;;;;;23.17;49.90;101627.84;4968569;28;20054;-78
2022/10/13 11:14:53;;;;;;;41.35;17.98;;;;;;;23.13;50.05;101678.03;4968246;28;20051;-78
2022/10/13 11:17:27;;;;;;;24.70;16.00;;;;;;;22.60;49.48;101598.94;4968336;28;20493;-77
2022/10/13 11:19:55;;;;;;;21.42;14.15;;;;;;;22.43;50.66;101555.03;4968211;28;20109;-79
2022/10/13 11:22:27;;;;;;;28.92;15.98;;;;;;;22.83;49.59;101663.72;4967328;28;20474;-77
2022/10/13 11:25:22;;;;;;;22.67;13.05;;;;;;;22.85;51.79;101636.47;4967026;28;20086;-78
2022/10/13 11:27:48;;;;;;;28.38;15.48;;;;;;;22.82;49.93;101632.28;4983222;28;20058;-79